Time;durP1;ratioP1;P1;durP2;ratioP2;P2;SDS_P1;SDS_P2;PMS_P1;PMS_P2;Temp;Humidity;BMP_temperature;BMP_pressure;BME280_temperature;BME280_humidity;BME280_pressure;Samples;Min_cycle;Max_cycle;Signal;HPM_P1;HPM_P2
2021/05/20 00:00:40;;;;;;;7.70;6.10;;;8.50;99.90;;;;;;4936290;29;20580;-77
2021/05/20 00:03:06;;;;;;;13.50;7.70;;;8.50;99.90;;;;;;4936874;29;20267;-75
2021/05/20 00:05:32;;;;;;;11.07;7.60;;;8.50;99.90;;;;;;4937174;29;20248;-74
2021/05/20 00:07:57;;;;;;;12.30;8.30;;;8.50;99.90;;;;;;4937075;29;20177;-74
2021/05/20 00:10:23;;;;;;;9.20;6.90;;;8.50;99.90;;;;;;4937009;29;20790;-75
2021/05/20 00:12:48;;;;;;;6.83;6.17;;;8.40;99.90;;;;;;4936657;29;20196;-75
2021/05/20 00:15:15;;;;;;;9.53;6.97;;;8.40;99.90;;;;;;4936999;29;20272;-75
2021/05/20 00:17:41;;;;;;;9.95;7.18;;;8.30;99.90;;;;;;4936877;29;20208;-75
2021/05/20 00:20:08;;;;;;;9.57;6.15;;;8.30;99.90;;;;;;4935977;29;20209;-74
2021/05/20 00:22:34;;;;;;;7.90;5.85;;;8.30;99.90;;;;;;4936788;29;20650;-75
2021/05/20 00:25:00;;;;;;;12.97;7.20;;;8.20;99.90;;;;;;4951068;29;20224;-74
2021/05/20 00:27:25;;;;;;;13.32;7.30;;;8.20;99.90;;;;;;4936750;29;20194;-74
2021/05/20 00:29:53;;;;;;;7.10;6.37;;;8.20;99.90;;;;;;4936722;29;20185;-74
2021/05/20 00:32:18;;;;;;;11.45;7.30;;;8.10;99.90;;;;;;4936668;29;20553;-74
2021/05/20 00:34:44;;;;;;;9.77;6.80;;;8.10;99.90;;;;;;4936514;29;20205;-74
2021/05/20 00:37:10;;;;;;;14.23;7.70;;;8.10;99.90;;;;;;4936703;29;20241;-74
2021/05/20 00:39:35;;;;;;;9.17;7.60;;;8.20;99.90;;;;;;4951377;29;20213;-74
2021/05/20 00:42:11;;;;;;;8.93;7.10;;;8.20;99.90;;;;;;4936531;29;20178;-74
2021/05/20 00:44:53;;;;;;;9.10;8.00;;;8.20;99.90;;;;;;4934870;29;20193;-74
2021/05/20 00:47:26;;;;;;;11.18;7.50;;;8.20;99.90;;;;;;4935198;29;20185;-74
2021/05/20 00:49:52;;;;;;;10.23;7.57;;;8.30;99.90;;;;;;4936489;29;20188;-74
2021/05/20 00:52:17;;;;;;;10.23;8.20;;;8.20;99.90;;;;;;4936397;29;20583;-74
2021/05/20 00:54:44;;;;;;;8.50;7.30;;;8.10;99.90;;;;;;4936053;29;20227;-74
2021/05/20 00:57:10;;;;;;;8.57;7.68;;;8.20;99.90;;;;;;4936125;29;20269;-74
2021/05/20 00:59:36;;;;;;;11.35;7.10;;;8.20;99.90;;;;;;4936126;29;20232;-74
2021/05/20 01:02:02;;;;;;;10.23;8.30;;;8.20;99.90;;;;;;4936190;29;20182;-74
2021/05/20 01:04:27;;;;;;;11.50;8.20;;;8.20;99.90;;;;;;4935862;29;20216;-74
2021/05/20 01:06:53;;;;;;;9.20;8.30;;;8.30;99.90;;;;;;4936202;29;20177;-74
2021/05/20 01:09:19;;;;;;;10.17;8.80;;;8.30;99.90;;;;;;4936133;29;20196;-74
2021/05/20 01:11:45;;;;;;;12.30;8.53;;;8.40;99.90;;;;;;4936290;29;20500;-74
2021/05/20 01:14:12;;;;;;;13.73;9.45;;;8.30;99.90;;;;;;4935933;29;20220;-74
2021/05/20 01:16:38;;;;;;;10.98;8.57;;;8.20;99.90;;;;;;4936049;29;20576;-74
2021/05/20 01:19:04;;;;;;;10.82;8.38;;;8.20;99.90;;;;;;4936128;29;20674;-74
2021/05/20 01:21:32;;;;;;;12.90;9.55;;;8.10;99.90;;;;;;4935937;29;20213;-74
2021/05/20 01:23:58;;;;;;;11.98;9.32;;;8.10;99.90;;;;;;4935739;29;20655;-74
2021/05/20 01:26:24;;;;;;;11.57;9.73;;;8.10;99.90;;;;;;4935984;29;20216;-75
2021/05/20 01:28:50;;;;;;;15.90;9.85;;;8.10;99.90;;;;;;4936059;29;20550;-74
2021/05/20 01:31:15;;;;;;;11.97;9.10;;;8.10;99.90;;;;;;4936044;29;20186;-74
2021/05/20 01:33:41;;;;;;;12.17;9.90;;;8.20;99.90;;;;;;4935527;29;20239;-74
2021/05/20 01:36:07;;;;;;;11.40;9.30;;;8.20;99.90;;;;;;4936143;29;20185;-74
2021/05/20 01:41:00;;;;;;;12.23;10.00;;;8.30;99.90;;;;;;4935753;29;20299;-74
2021/05/20 01:43:27;;;;;;;13.75;10.10;;;8.30;99.90;;;;;;4935480;29;20219;-75
2021/05/20 01:45:58;;;;;;;12.90;9.68;;;8.40;99.90;;;;;;4935748;29;20200;-74
2021/05/20 01:48:24;;;;;;;12.65;10.43;;;8.30;99.90;;;;;;4935753;29;20592;-75
2021/05/20 01:50:51;;;;;;;12.63;10.52;;;8.30;99.90;;;;;;4935716;29;20221;-75
2021/05/20 01:53:17;;;;;;;17.23;13.10;;;8.30;99.90;;;;;;4935289;29;20204;-74
2021/05/20 01:55:42;;;;;;;20.67;13.47;;;8.30;99.90;;;;;;4935595;29;20236;-74
2021/05/20 01:58:08;;;;;;;13.93;11.63;;;8.40;99.90;;;;;;4935828;29;20425;-74
2021/05/20 02:00:34;;;;;;;15.30;11.70;;;8.30;99.90;;;;;;4935648;29;20213;-74
2021/05/20 02:02:59;;;;;;;15.97;12.50;;;8.30;99.90;;;;;;4935366;29;20698;-74
2021/05/20 02:05:25;;;;;;;14.90;12.50;;;8.30;99.90;;;;;;4935631;29;20185;-74
2021/05/20 02:07:51;;;;;;;13.53;11.93;;;8.40;99.90;;;;;;4935507;29;20185;-75
2021/05/20 02:10:16;;;;;;;15.80;12.97;;;8.30;99.90;;;;;;4935648;29;20337;-74
2021/05/20 02:12:42;;;;;;;15.10;12.67;;;8.40;99.90;;;;;;4950358;29;20181;-75
2021/05/20 02:15:08;;;;;;;13.90;12.40;;;8.40;99.90;;;;;;4935338;29;20205;-74
2021/05/20 02:17:36;;;;;;;15.65;13.25;;;8.40;99.90;;;;;;4935618;29;20204;-74
2021/05/20 02:20:03;;;;;;;15.52;12.13;;;8.40;99.90;;;;;;4935491;29;20615;-74
2021/05/20 02:22:29;;;;;;;15.55;13.23;;;8.40;99.90;;;;;;4934215;29;20196;-74
2021/05/20 02:24:54;;;;;;;17.87;12.93;;;8.40;99.90;;;;;;4938650;29;20217;-74
2021/05/20 02:27:20;;;;;;;16.30;12.93;;;8.40;99.90;;;;;;4939313;29;20182;-74
2021/05/20 02:29:46;;;;;;;14.80;12.27;;;8.40;99.90;;;;;;4939079;29;20185;-74
2021/05/20 02:32:11;;;;;;;17.03;12.97;;;8.50;99.90;;;;;;4939106;29;20212;-74
2021/05/20 02:34:37;;;;;;;18.43;13.03;;;8.40;99.90;;;;;;4938465;29;20538;-74
2021/05/20 02:37:02;;;;;;;17.87;15.07;;;8.40;99.90;;;;;;4938915;29;20265;-74
2021/05/20 02:39:28;;;;;;;19.67;14.30;;;8.40;99.90;;;;;;4953515;29;20260;-74
2021/05/20 02:41:53;;;;;;;20.77;15.30;;;8.30;99.90;;;;;;4938706;29;20185;-74
2021/05/20 02:44:19;;;;;;;23.47;16.30;;;8.30;99.90;;;;;;4953167;29;20225;-74
2021/05/20 02:46:45;;;;;;;18.20;15.03;;;8.30;99.90;;;;;;4938621;29;20182;-74
2021/05/20 02:49:10;;;;;;;18.63;14.90;;;8.30;99.90;;;;;;4938638;29;20272;-74
2021/05/20 02:51:36;;;;;;;18.10;14.10;;;8.30;99.90;;;;;;4938546;29;20211;-74
2021/05/20 02:54:01;;;;;;;23.90;15.30;;;8.30;99.90;;;;;;4938107;29;20216;-74
2021/05/20 02:56:27;;;;;;;24.53;16.13;;;8.30;99.90;;;;;;4938567;29;20186;-74
2021/05/20 02:58:52;;;;;;;20.23;16.67;;;8.30;99.90;;;;;;4938422;29;20219;-75
2021/05/20 03:01:22;;;;;;;28.13;18.17;;;8.40;99.90;;;;;;4938503;29;20181;-74
2021/05/20 03:03:47;;;;;;;25.55;16.90;;;8.60;99.90;;;;;;4938010;29;20657;-74
2021/05/20 03:06:13;;;;;;;24.20;16.03;;;8.60;99.90;;;;;;4938050;29;20213;-75
2021/05/20 03:08:39;;;;;;;20.70;14.60;;;8.60;99.90;;;;;;4938403;29;20178;-74
2021/05/20 03:11:04;;;;;;;23.63;15.50;;;8.50;99.90;;;;;;4936975;29;20185;-74
2021/05/20 03:13:30;;;;;;;22.13;15.73;;;8.50;99.90;;;;;;4937868;29;20693;-75
2021/05/20 03:15:55;;;;;;;20.93;16.70;;;8.50;99.90;;;;;;4938482;29;20584;-74
2021/05/20 03:18:21;;;;;;;26.63;16.60;;;8.50;99.90;;;;;;4938286;29;20181;-76
2021/05/20 03:20:47;;;;;;;22.43;18.07;;;8.40;99.90;;;;;;4937892;29;20696;-74
2021/05/20 03:23:12;;;;;;;28.20;20.07;;;8.40;99.90;;;;;;4937529;29;20203;-74
2021/05/20 03:25:38;;;;;;;28.33;18.17;;;8.40;99.90;;;;;;4937957;29;20262;-74
2021/05/20 03:28:03;;;;;;;30.37;19.30;;;8.50;99.90;;;;;;4938172;29;20177;-76
2021/05/20 03:30:29;;;;;;;24.50;19.13;;;8.50;99.90;;;;;;4937658;29;20293;-74
2021/05/20 03:32:55;;;;;;;30.27;20.77;;;8.50;99.90;;;;;;4937492;29;20662;-75
2021/05/20 03:35:20;;;;;;;27.77;18.10;;;8.60;99.90;;;;;;4936519;29;20673;-75
2021/05/20 03:37:46;;;;;;;32.07;23.07;;;8.60;99.90;;;;;;4937796;29;20260;-74
2021/05/20 03:40:12;;;;;;;33.03;22.20;;;8.60;99.90;;;;;;4937797;29;20213;-75
2021/05/20 03:42:38;;;;;;;35.07;23.87;;;8.70;99.90;;;;;;4937499;29;20185;-74
2021/05/20 03:45:05;;;;;;;35.90;24.37;;;8.70;99.90;;;;;;4937457;29;20232;-74
2021/05/20 03:47:31;;;;;;;32.97;24.92;;;8.70;99.90;;;;;;4937726;29;20531;-74
2021/05/20 03:49:56;;;;;;;38.83;27.77;;;8.70;99.90;;;;;;4937653;29;20181;-74
2021/05/20 03:52:22;;;;;;;36.33;24.13;;;8.70;99.90;;;;;;4937365;29;20181;-74
2021/05/20 03:54:48;;;;;;;34.17;24.70;;;8.70;99.90;;;;;;4937000;29;20641;-74
2021/05/20 03:57:13;;;;;;;34.23;23.90;;;8.70;99.90;;;;;;4937427;29;20181;-74
2021/05/20 03:59:39;;;;;;;40.03;27.57;;;8.70;99.90;;;;;;4937209;29;20341;-74
2021/05/20 04:02:05;;;;;;;45.77;27.80;;;8.70;99.90;;;;;;4937389;29;20182;-74
2021/05/20 04:04:31;;;;;;;38.03;25.00;;;8.60;99.90;;;;;;4936685;29;20212;-74
2021/05/20 04:06:56;;;;;;;49.87;27.53;;;8.60;99.90;;;;;;4937044;29;20189;-75
2021/05/20 04:09:22;;;;;;;42.47;25.60;;;8.70;99.90;;;;;;4937156;29;20208;-75
2021/05/20 04:11:48;;;;;;;40.67;28.37;;;8.60;99.90;;;;;;4937274;29;20194;-74
2021/05/20 04:14:13;;;;;;;45.97;31.20;;;8.70;99.90;;;;;;4936694;29;20209;-74
2021/05/20 04:16:39;;;;;;;50.40;30.87;;;8.60;99.90;;;;;;4936907;29;20183;-75
2021/05/20 04:19:05;;;;;;;50.10;33.47;;;8.60;99.90;;;;;;4937043;29;20593;-74
2021/05/20 04:21:31;;;;;;;54.63;32.53;;;8.70;99.90;;;;;;4936985;29;20206;-74
2021/05/20 04:23:57;;;;;;;59.75;35.35;;;8.70;99.90;;;;;;4936341;29;20827;-74
2021/05/20 04:26:23;;;;;;;57.53;38.80;;;8.60;99.90;;;;;;4936910;29;20184;-75
2021/05/20 04:28:49;;;;;;;61.57;38.50;;;8.60;99.90;;;;;;4936692;29;20177;-75
2021/05/20 04:31:15;;;;;;;72.15;38.90;;;8.70;99.90;;;;;;4936848;29;20169;-74
2021/05/20 04:33:41;;;;;;;71.07;41.22;;;8.70;99.90;;;;;;4936345;29;20201;-74
2021/05/20 04:36:07;;;;;;;61.07;39.60;;;8.70;99.90;;;;;;4936713;29;20174;-75
2021/05/20 04:38:33;;;;;;;70.18;42.78;;;8.60;99.90;;;;;;4951316;29;20643;-74
2021/05/20 04:40:58;;;;;;;78.70;43.27;;;8.60;99.90;;;;;;4936319;29;20205;-74
2021/05/20 04:43:24;;;;;;;70.73;44.07;;;8.70;99.90;;;;;;4936189;29;20714;-75
2021/05/20 04:45:49;;;;;;;73.60;43.93;;;8.80;99.90;;;;;;4936167;29;20176;-74
2021/05/20 04:48:15;;;;;;;74.73;45.40;;;8.80;99.90;;;;;;4936343;29;20207;-74
2021/05/20 04:50:41;;;;;;;87.70;47.93;;;8.80;99.90;;;;;;4936547;29;20182;-74
2021/05/20 04:53:08;;;;;;;84.30;49.45;;;8.90;99.90;;;;;;4936194;29;20220;-75
2021/05/20 04:55:34;;;;;;;91.07;47.05;;;9.00;99.90;;;;;;4951098;29;20182;-75
2021/05/20 04:58:00;;;;;;;94.90;49.77;;;9.00;99.90;;;;;;4936384;29;20181;-74
2021/05/20 05:00:26;;;;;;;80.53;48.70;;;9.10;99.90;;;;;;4935987;29;20879;-74
2021/05/20 05:02:51;;;;;;;84.97;50.50;;;9.10;99.90;;;;;;4950685;29;20706;-77
2021/05/20 05:05:17;;;;;;;104.97;53.83;;;9.20;99.90;;;;;;4936143;29;20213;-74
2021/05/20 05:07:43;;;;;;;98.63;50.03;;;9.30;99.90;;;;;;4936388;29;20201;-74
2021/05/20 05:10:10;;;;;;;109.18;55.28;;;9.30;99.90;;;;;;4936153;29;20181;-75
2021/05/20 05:12:35;;;;;;;110.55;55.33;;;9.50;99.90;;;;;;4936025;29;20181;-75
2021/05/20 05:15:01;;;;;;;99.90;53.07;;;9.50;99.90;;;;;;4935797;29;20227;-75
2021/05/20 05:17:27;;;;;;;104.05;53.83;;;9.40;99.90;;;;;;4936004;29;20178;-75
2021/05/20 05:19:53;;;;;;;101.03;57.00;;;9.50;99.90;;;;;;4935910;29;20685;-74
2021/05/20 05:22:19;;;;;;;91.10;47.00;;;9.50;99.90;;;;;;4936147;29;20208;-74
2021/05/20 05:24:45;;;;;;;87.20;45.60;;;9.50;99.90;;;;;;4935798;29;20308;-74
2021/05/20 05:27:11;;;;;;;96.97;45.80;;;9.30;99.90;;;;;;4936159;29;20260;-74
2021/05/20 05:29:37;;;;;;;93.13;47.30;;;9.30;99.90;;;;;;4936114;29;20237;-74
2021/05/20 05:32:03;;;;;;;89.23;48.07;;;9.30;99.90;;;;;;4936019;29;20594;-74
2021/05/20 05:34:28;;;;;;;97.15;50.67;;;9.30;99.90;;;;;;4935637;29;20453;-76
2021/05/20 05:36:54;;;;;;;93.73;51.53;;;9.40;99.90;;;;;;4935010;29;20588;-76
2021/05/20 05:39:20;;;;;;;98.83;49.57;;;9.50;99.90;;;;;;4935932;29;20225;-76
2021/05/20 05:41:45;;;;;;;100.80;51.03;;;9.60;99.90;;;;;;4935780;29;20523;-76
2021/05/20 05:44:12;;;;;;;89.63;47.63;;;9.60;99.90;;;;;;4935421;29;20280;-76
2021/05/20 05:46:39;;;;;;;88.10;47.05;;;9.70;99.90;;;;;;4936039;29;20236;-76
2021/05/20 05:49:14;;;;;;;86.80;48.50;;;9.70;99.90;;;;;;4935692;29;20188;-76
2021/05/20 05:51:43;;;;;;;90.50;48.00;;;9.70;99.90;;;;;;4935897;29;20173;-76
2021/05/20 05:54:09;;;;;;;91.85;45.97;;;9.90;99.90;;;;;;4935305;29;20194;-75
2021/05/20 05:56:35;;;;;;;84.30;45.07;;;10.00;99.90;;;;;;4935807;29;20187;-76
2021/05/20 05:59:00;;;;;;;94.83;47.03;;;10.10;99.90;;;;;;4937782;29;20181;-77
2021/05/20 06:01:26;;;;;;;76.67;42.43;;;10.10;99.90;;;;;;4939387;29;20423;-77
2021/05/20 06:03:52;;;;;;;73.53;41.97;;;10.20;99.90;;;;;;4939008;29;20193;-76
2021/05/20 06:06:17;;;;;;;60.03;36.03;;;10.20;99.90;;;;;;4939375;29;20208;-76
2021/05/20 06:08:43;;;;;;;52.57;32.23;;;10.20;99.90;;;;;;4939247;29;20188;-76
2021/05/20 06:11:08;;;;;;;45.27;29.67;;;10.10;99.90;;;;;;4939238;29;20205;-77
2021/05/20 06:13:34;;;;;;;43.53;30.43;;;10.00;99.90;;;;;;4938740;29;20614;-79
2021/05/20 06:16:00;;;;;;;42.03;28.40;;;10.00;99.90;;;;;;4939191;29;20189;-78
2021/05/20 06:18:26;;;;;;;41.75;29.52;;;10.10;99.90;;;;;;4939148;29;20185;-79
2021/05/20 06:20:51;;;;;;;42.30;27.23;;;10.10;99.90;;;;;;4939114;29;20697;-79
2021/05/20 06:23:17;;;;;;;42.77;27.80;;;10.20;99.90;;;;;;4938593;29;20292;-78
2021/05/20 06:25:45;;;;;;;41.87;29.20;;;10.20;99.90;;;;;;4939047;29;20173;-78
2021/05/20 06:28:11;;;;;;;42.13;28.90;;;10.20;99.90;;;;;;4938932;29;20596;-78
2021/05/20 06:30:37;;;;;;;36.60;26.87;;;10.40;99.90;;;;;;4938886;29;20186;-76
2021/05/20 06:33:03;;;;;;;39.05;26.17;;;10.50;99.90;;;;;;4938641;29;20197;-78
2021/05/20 06:35:28;;;;;;;39.80;28.40;;;10.70;99.90;;;;;;4939008;29;20190;-79
2021/05/20 06:37:54;;;;;;;33.63;23.10;;;10.60;99.90;;;;;;4953726;29;20185;-78
2021/05/20 06:40:19;;;;;;;36.50;25.97;;;10.50;99.90;;;;;;4938772;29;20209;-79
2021/05/20 06:42:45;;;;;;;27.27;19.47;;;10.60;99.90;;;;;;4938686;29;20573;-78
2021/05/20 06:45:11;;;;;;;25.30;20.10;;;10.50;99.90;;;;;;4938912;29;20177;-78
2021/05/20 06:47:37;;;;;;;27.17;21.73;;;10.50;99.90;;;;;;4938622;29;20181;-77
2021/05/20 06:50:04;;;;;;;29.70;21.70;;;10.60;99.90;;;;;;4938582;29;20185;-78
2021/05/20 06:52:29;;;;;;;31.33;23.02;;;10.60;99.90;;;;;;4937432;29;20212;-78
2021/05/20 06:54:55;;;;;;;35.10;23.17;;;10.70;99.90;;;;;;4953357;29;20702;-78
2021/05/20 06:57:25;;;;;;;31.80;23.50;;;10.80;99.90;;;;;;4938840;29;20205;-76
2021/05/20 07:00:00;;;;;;;26.45;22.25;;;11.00;99.90;;;;;;4938459;29;20687;-76
2021/05/20 07:02:27;;;;;;;27.05;21.63;;;11.10;99.90;;;;;;4938462;29;20706;-77
2021/05/20 07:04:54;;;;;;;25.60;19.98;;;10.90;99.90;;;;;;4938031;29;20201;-76
2021/05/20 07:07:20;;;;;;;25.23;20.50;;;11.00;99.90;;;;;;4938487;29;20224;-76
2021/05/20 07:09:48;;;;;;;26.20;21.10;;;11.00;99.90;;;;;;4938091;29;20189;-76
2021/05/20 07:12:14;;;;;;;28.05;20.73;;;11.00;99.90;;;;;;4952937;29;20186;-77
2021/05/20 07:14:40;;;;;;;27.00;20.67;;;11.20;99.90;;;;;;4937694;29;20193;-77
2021/05/20 07:17:07;;;;;;;31.03;21.30;;;11.20;99.90;;;;;;4952830;29;20185;-77
2021/05/20 07:19:33;;;;;;;33.28;23.48;;;11.20;99.90;;;;;;4938098;29;20648;-77
2021/05/20 07:21:59;;;;;;;32.33;21.73;;;11.30;99.90;;;;;;4936776;29;20213;-77
2021/05/20 07:24:25;;;;;;;27.23;21.70;;;11.20;99.90;;;;;;4937362;29;20244;-77
2021/05/20 07:26:52;;;;;;;24.50;19.73;;;11.10;99.90;;;;;;4938480;29;20414;-77
2021/05/20 07:29:18;;;;;;;28.48;22.50;;;11.20;99.90;;;;;;4936883;29;20193;-77
2021/05/20 07:31:44;;;;;;;29.30;20.20;;;11.20;99.90;;;;;;4938115;29;20212;-77
2021/05/20 07:34:09;;;;;;;28.30;20.20;;;11.30;99.90;;;;;;4937160;29;20619;-77
2021/05/20 07:36:35;;;;;;;24.90;20.77;;;11.60;99.90;;;;;;4937657;29;20178;-77
2021/05/20 07:39:03;;;;;;;24.97;17.40;;;11.70;99.90;;;;;;4937730;29;20673;-77
2021/05/20 07:41:29;;;;;;;21.95;19.10;;;11.80;99.90;;;;;;4936539;29;20182;-77
2021/05/20 07:43:55;;;;;;;21.20;18.00;;;12.00;99.90;;;;;;4937085;29;20220;-77
2021/05/20 07:46:21;;;;;;;24.50;19.00;;;12.00;99.90;;;;;;4937383;29;20915;-78
2021/05/20 07:48:46;;;;;;;23.70;17.10;;;12.30;99.90;;;;;;4937557;29;20187;-77
2021/05/20 07:51:12;;;;;;;23.47;16.03;;;12.40;99.90;;;;;;4937850;29;20546;-77
2021/05/20 07:53:38;;;;;;;21.80;16.70;;;12.50;99.90;;;;;;4937050;29;20201;-76
2021/05/20 07:56:04;;;;;;;20.40;16.70;;;12.40;99.90;;;;;;4937545;29;20591;-77
2021/05/20 07:58:31;;;;;;;21.17;16.67;;;12.50;99.90;;;;;;4937432;29;21336;-77
2021/05/20 08:00:57;;;;;;;19.60;14.43;;;12.60;99.90;;;;;;4952041;29;20473;-77
2021/05/20 08:03:30;;;;;;;23.50;15.70;;;12.70;99.90;;;;;;4951632;29;20444;-78
2021/05/20 08:06:03;;;;;;;18.00;14.80;;;12.30;99.90;;;;;;4951152;29;20484;-77
2021/05/20 08:11:19;;;;;;;15.07;13.00;;;12.70;99.90;;;;;;4943577;29;20425;-78
2021/05/20 08:13:44;;;;;;;18.57;12.27;;;12.80;99.90;;;;;;4951276;29;20433;-78
2021/05/20 08:16:11;;;;;;;15.90;13.17;;;13.20;99.90;;;;;;4937058;29;20423;-77
2021/05/20 08:18:36;;;;;;;15.37;11.03;;;13.20;99.90;;;;;;4937042;29;20225;-77
2021/05/20 08:21:03;;;;;;;17.43;11.67;;;13.00;99.90;;;;;;4936239;29;20461;-77
2021/05/20 08:23:31;;;;;;;14.40;10.30;;;13.00;99.90;;;;;;4936231;29;20217;-77
2021/05/20 08:25:57;;;;;;;15.53;11.07;;;13.10;99.90;;;;;;4937109;29;20422;-77
2021/05/20 08:28:22;;;;;;;15.10;11.27;;;13.30;99.90;;;;;;4936808;29;20380;-78
2021/05/20 08:30:48;;;;;;;12.60;11.13;;;13.70;99.90;;;;;;4936642;29;20532;-78
2021/05/20 08:33:14;;;;;;;10.80;9.70;;;13.60;99.90;;;;;;4936361;29;20231;-77
2021/05/20 08:35:40;;;;;;;12.43;10.83;;;13.50;99.90;;;;;;4936713;29;20895;-78
2021/05/20 08:38:06;;;;;;;13.90;10.80;;;14.20;99.90;;;;;;4936697;29;20260;-78
2021/05/20 08:40:32;;;;;;;13.37;10.13;;;14.00;99.90;;;;;;4936432;29;20201;-78
2021/05/20 08:42:58;;;;;;;14.57;10.97;;;14.00;99.90;;;;;;4936312;29;20432;-78
2021/05/20 08:45:27;;;;;;;11.57;9.93;;;14.20;99.90;;;;;;4936808;29;20180;-77
2021/05/20 08:47:54;;;;;;;9.53;8.30;;;14.10;99.90;;;;;;4936584;29;20448;-77
2021/05/20 08:50:23;;;;;;;9.93;9.00;;;14.30;99.90;;;;;;4936564;29;20413;-77
2021/05/20 08:52:50;;;;;;;10.57;8.83;;;15.10;99.90;;;;;;4936070;29;20840;-77
2021/05/20 08:55:18;;;;;;;10.00;8.30;;;14.70;99.90;;;;;;4936403;29;20406;-77
2021/05/20 08:57:44;;;;;;;12.73;10.00;;;14.40;99.90;;;;;;4936365;29;20421;-77
2021/05/20 09:00:17;;;;;;;8.87;7.83;;;14.20;99.90;;;;;;4934833;29;20472;-78
2021/05/20 09:02:42;;;;;;;11.30;10.10;;;14.30;99.90;;;;;;4934932;29;20396;-77
2021/05/20 09:05:11;;;;;;;12.57;9.40;;;14.50;99.90;;;;;;4934714;29;21038;-77
2021/05/20 09:07:41;;;;;;;10.13;9.17;;;14.80;99.90;;;;;;4936190;29;20429;-77
2021/05/20 09:10:19;;;;;;;10.90;9.80;;;15.20;99.90;;;;;;4936257;29;20552;-77
2021/05/20 09:12:46;;;;;;;10.50;8.00;;;16.00;99.90;;;;;;4935717;29;20399;-78
2021/05/20 09:15:18;;;;;;;15.03;10.77;;;15.70;99.90;;;;;;4934783;29;20419;-77
2021/05/20 09:17:44;;;;;;;13.30;11.20;;;15.20;99.90;;;;;;4936019;29;20424;-78
2021/05/20 09:20:11;;;;;;;13.60;11.87;;;15.10;99.90;;;;;;4936000;29;20930;-77
2021/05/20 09:22:37;;;;;;;15.37;11.67;;;15.40;99.90;;;;;;4935958;29;20417;-77
2021/05/20 09:25:05;;;;;;;14.20;10.57;;;15.50;99.90;;;;;;4950162;29;20526;-77
2021/05/20 09:27:37;;;;;;;19.50;11.33;;;14.90;99.90;;;;;;4935848;29;20388;-77
2021/05/20 09:30:21;;;;;;;10.90;9.80;;;15.00;99.90;;;;;;4936174;29;20402;-77
2021/05/20 09:32:57;;;;;;;12.30;9.40;;;15.80;99.90;;;;;;4937881;29;20399;-78
2021/05/20 09:35:27;;;;;;;13.30;9.87;;;16.50;99.90;;;;;;4940086;29;20556;-77
2021/05/20 09:38:16;;;;;;;9.10;8.10;;;17.40;99.90;;;;;;4940109;29;20397;-78
2021/05/20 09:40:56;;;;;;;10.27;8.60;;;17.70;99.90;;;;;;4940055;29;20797;-77
2021/05/20 09:43:32;;;;;;;8.60;7.80;;;17.40;99.90;;;;;;4938241;29;20973;-78
2021/05/20 09:46:00;;;;;;;14.13;10.83;;;17.90;99.90;;;;;;4939935;29;20423;-78
2021/05/20 09:48:32;;;;;;;10.63;9.03;;;16.70;99.90;;;;;;4939657;29;20424;-78
2021/05/20 09:50:58;;;;;;;9.93;8.97;;;17.20;99.90;;;;;;4939793;29;20433;-78
2021/05/20 09:53:26;;;;;;;11.93;9.17;;;17.10;99.90;;;;;;4939028;29;20456;-78
2021/05/20 09:55:54;;;;;;;9.90;8.90;;;17.30;99.90;;;;;;4939603;29;20421;-77
2021/05/20 09:58:23;;;;;;;11.20;8.17;;;16.60;99.90;;;;;;4939529;29;20480;-78
2021/05/20 10:00:50;;;;;;;8.83;7.90;;;16.90;99.90;;;;;;4939470;29;20460;-78
2021/05/20 10:03:19;;;;;;;8.47;6.90;;;17.30;99.90;;;;;;4937656;29;20445;-78
2021/05/20 10:05:46;;;;;;;12.13;7.07;;;17.00;99.90;;;;;;4939365;29;20403;-77
2021/05/20 10:08:15;;;;;;;8.13;7.13;;;16.70;99.90;;;;;;4939534;29;20833;-77
2021/05/20 10:10:43;;;;;;;9.10;7.40;;;16.80;99.90;;;;;;4939222;29;20512;-77
2021/05/20 10:13:12;;;;;;;7.73;6.53;;;17.00;99.90;;;;;;4938858;29;20532;-77
2021/05/20 10:15:39;;;;;;;7.70;6.80;;;16.90;99.90;;;;;;4939204;29;20392;-78
2021/05/20 10:18:10;;;;;;;9.87;6.50;;;16.90;99.90;;;;;;4939217;29;20400;-77
2021/05/20 10:20:38;;;;;;;7.97;7.17;;;17.80;99.90;;;;;;4939046;29;20490;-77
2021/05/20 10:23:09;;;;;;;7.67;5.83;;;17.50;99.90;;;;;;4938770;29;20438;-77
2021/05/20 10:25:36;;;;;;;7.00;4.60;;;17.30;99.90;;;;;;4938900;29;20420;-77
2021/05/20 10:28:01;;;;;;;9.63;6.03;;;17.20;99.90;;;;;;4939095;29;20403;-77
2021/05/20 10:30:27;;;;;;;6.90;5.57;;;17.30;99.90;;;;;;4938952;29;20417;-78
2021/05/20 10:32:59;;;;;;;12.30;5.87;;;17.30;99.90;;;;;;4938540;29;20455;-77
2021/05/20 10:35:43;;;;;;;10.73;6.20;;;17.70;99.90;;;;;;4938929;29;20421;-77
2021/05/20 10:38:09;;;;;;;6.73;6.13;;;17.80;99.90;;;;;;4938886;29;20428;-78
2021/05/20 10:40:35;;;;;;;6.37;5.27;;;18.60;99.90;;;;;;4938734;29;20472;-77
2021/05/20 10:43:08;;;;;;;6.80;5.67;;;18.60;99.90;;;;;;4938402;29;20449;-78
2021/05/20 10:45:39;;;;;;;6.70;4.50;;;19.70;99.90;;;;;;4938569;29;20405;-78
2021/05/20 10:48:05;;;;;;;5.07;4.40;;;18.90;99.90;;;;;;4938637;29;20829;-77
2021/05/20 10:50:56;;;;;;;4.90;4.10;;;19.40;99.90;;;;;;4938645;29;20426;-77
2021/05/20 10:53:40;;;;;;;5.27;4.50;;;19.40;99.90;;;;;;4938307;29;20549;-78
2021/05/20 10:56:07;;;;;;;4.67;4.27;;;19.40;99.90;;;;;;4938943;29;20997;-78
2021/05/20 10:58:35;;;;;;;5.70;4.07;;;18.90;99.90;;;;;;4938571;29;20430;-78
2021/05/20 11:01:20;;;;;;;5.00;4.40;;;19.40;99.90;;;;;;4938335;29;20491;-77
2021/05/20 11:03:59;;;;;;;5.80;4.07;;;19.40;99.90;;;;;;4936807;29;20524;-78
2021/05/20 11:06:46;;;;;;;7.03;4.50;;;20.20;99.90;;;;;;4938294;29;20413;-78
2021/05/20 11:09:15;;;;;;;4.60;3.63;;;20.80;99.90;;;;;;4938451;29;20409;-78
2021/05/20 11:11:41;;;;;;;7.10;3.70;;;20.50;99.90;;;;;;4938271;29;20431;-80
2021/05/20 11:14:27;;;;;;;5.00;3.40;;;20.10;99.90;;;;;;4937759;29;20429;-78
2021/05/20 11:16:54;;;;;;;5.37;3.80;;;20.60;99.90;;;;;;4934454;29;20561;-79
2021/05/20 11:19:27;;;;;;;7.73;5.00;;;19.60;99.90;;;;;;4938080;29;20521;-77
2021/05/20 11:22:02;;;;;;;5.50;4.13;;;19.20;99.90;;;;;;4938159;29;20457;-77
2021/05/20 11:24:30;;;;;;;6.63;3.90;;;18.80;99.90;;;;;;4937498;29;20427;-77
2021/05/20 11:26:57;;;;;;;4.30;3.40;;;18.80;99.90;;;;;;4938216;29;20449;-78
2021/05/20 11:29:25;;;;;;;3.80;3.50;;;18.10;99.90;;;;;;4952868;29;20479;-77
2021/05/20 11:31:54;;;;;;;4.53;3.43;;;18.00;99.90;;;;;;4952622;29;20905;-78
2021/05/20 11:35:16;;;;;;;3.90;3.60;;;18.00;99.90;;;;;;4937339;29;20469;-78
2021/05/20 11:37:21;;;;;;;6.73;3.30;;;18.50;99.90;;;;;;4934865;29;20425;-77
2021/05/20 11:39:47;;;;;;;4.37;3.63;;;18.70;99.90;;;;;;4937815;29;20481;-77
2021/05/20 11:42:21;;;;;;;5.40;3.03;;;18.20;99.90;;;;;;4937579;29;20890;-77
2021/05/20 11:44:47;;;;;;;3.30;3.00;;;18.10;99.90;;;;;;4936039;29;20674;-78
2021/05/20 11:47:14;;;;;;;5.13;3.03;;;18.70;99.90;;;;;;4937742;29;20439;-78
2021/05/20 11:49:42;;;;;;;4.67;2.40;;;19.00;99.90;;;;;;4937584;29;20403;-77
2021/05/20 11:52:09;;;;;;;4.70;1.97;;;19.30;99.90;;;;;;4936116;29;20452;-78
2021/05/20 11:54:46;;;;;;;3.37;2.13;;;19.50;99.90;;;;;;4935769;29;20476;-78
2021/05/20 11:57:15;;;;;;;2.53;1.93;;;19.60;99.90;;;;;;4936567;29;20926;-78
2021/05/20 11:59:46;;;;;;;1.40;1.20;;;19.60;99.90;;;;;;4937185;29;20492;-78
2021/05/20 12:02:19;;;;;;;2.47;2.00;;;19.70;99.90;;;;;;4937409;29;20387;-78
2021/05/20 12:04:45;;;;;;;2.30;1.57;;;21.20;99.90;;;;;;4936771;29;20830;-78
2021/05/20 12:07:22;;;;;;;3.70;1.47;;;20.90;99.90;;;;;;4937285;29;20425;-78
2021/05/20 12:09:48;;;;;;;2.70;1.57;;;20.70;99.90;;;;;;4940054;29;20425;-78
2021/05/20 12:12:16;;;;;;;1.40;1.10;;;20.70;99.90;;;;;;4951811;29;20421;-77
2021/05/20 12:14:43;;;;;;;5.10;1.43;;;19.80;99.90;;;;;;4951344;29;20194;-78
2021/05/20 12:17:15;;;;;;;2.40;1.30;;;20.20;99.90;;;;;;4936930;29;20956;-78
2021/05/20 12:19:43;;;;;;;3.13;1.60;;;20.40;99.90;;;;;;4936906;29;20428;-79
2021/05/20 12:22:15;;;;;;;1.63;1.30;;;20.40;99.90;;;;;;4936805;29;20384;-78
2021/05/20 12:24:44;;;;;;;4.73;1.70;;;20.50;99.90;;;;;;4936109;29;20457;-78
2021/05/20 12:27:13;;;;;;;2.30;1.40;;;20.00;99.90;;;;;;4936826;29;20384;-78
2021/05/20 12:29:41;;;;;;;3.30;1.30;;;19.70;99.90;;;;;;4935141;29;20425;-78
2021/05/20 12:32:34;;;;;;;2.10;1.57;;;20.10;99.90;;;;;;4936739;29;20946;-78
2021/05/20 12:35:21;;;;;;;2.53;1.03;;;20.40;99.90;;;;;;4936507;29;20423;-78
2021/05/20 12:37:59;;;;;;;3.63;1.10;;;20.50;99.90;;;;;;4936754;29;20428;-78
2021/05/20 12:40:28;;;;;;;2.83;1.40;;;21.30;99.90;;;;;;4936576;29;20484;-78
2021/05/20 12:43:06;;;;;;;2.20;1.23;;;21.00;99.90;;;;;;4936082;29;20418;-78
2021/05/20 12:45:34;;;;;;;1.33;1.20;;;21.20;99.90;;;;;;4936514;29;20940;-77